createdAt,value
2023-02-26T00:01:43.866Z,99025.84
2023-02-26T00:04:11.640Z,99026.09
2023-02-26T00:06:53.148Z,99028.67
2023-02-26T00:09:23.067Z,99036.52
2023-02-26T00:11:51.473Z,99043.42
2023-02-26T00:14:20.248Z,99047.88
2023-02-26T00:16:54.636Z,99055.94
2023-02-26T00:19:22.459Z,99061.75
2023-02-26T00:21:50.656Z,99062.36
2023-02-26T00:24:18.380Z,99068.13
2023-02-26T00:26:47.164Z,99069.34
2023-02-26T00:29:15.069Z,99074.59
2023-02-26T00:31:43.131Z,99073.70
2023-02-26T00:34:14.998Z,99076.03
2023-02-26T00:37:01.163Z,99083.90
2023-02-26T00:39:28.752Z,99086.89
2023-02-26T00:41:57.135Z,99085.66
2023-02-26T00:44:25.064Z,99088.98
2023-02-26T00:47:00.180Z,99086.58
2023-02-26T00:49:41.546Z,99088.70
2023-02-26T00:52:26.151Z,99088.16
2023-02-26T00:54:53.845Z,99090.93
2023-02-26T00:57:21.517Z,99094.71
2023-02-26T00:59:49.255Z,99099.95
2023-02-26T01:02:17.066Z,99102.70
2023-02-26T01:04:46.641Z,99107.55
2023-02-26T01:07:15.412Z,99111.45
2023-02-26T01:09:43.420Z,99114.92
2023-02-26T01:12:17.537Z,99117.48
2023-02-26T01:14:47.267Z,99121.29
2023-02-26T01:17:29.614Z,99126.46
2023-02-26T01:19:58.425Z,99137.73
2023-02-26T01:22:38.924Z,99145.69
2023-02-26T01:25:12.825Z,99146.12
2023-02-26T01:27:41.064Z,99153.30
2023-02-26T01:30:09.731Z,99162.35
2023-02-26T01:32:46.471Z,99163.29
2023-02-26T01:35:32.836Z,99173.55
2023-02-26T01:38:03.804Z,99179.46
2023-02-26T01:40:58.292Z,99185.11
2023-02-26T01:43:29.843Z,99194.42
2023-02-26T01:46:26.294Z,99199.77
2023-02-26T01:48:57.090Z,99206.85
2023-02-26T01:51:56.352Z,99209.92
2023-02-26T01:54:38.146Z,99221.59
2023-02-26T01:57:12.399Z,99223.25
2023-02-26T01:59:45.100Z,99225.71
2023-02-26T02:02:18.703Z,99233.40
2023-02-26T02:04:47.934Z,99240.95
2023-02-26T02:07:17.535Z,99245.70
2023-02-26T02:09:47.586Z,99252.39
2023-02-26T02:12:40.314Z,99257.67
2023-02-26T02:15:17.972Z,99261.75
2023-02-26T02:17:54.692Z,99264.94
2023-02-26T02:20:47.231Z,99269.60
2023-02-26T02:23:33.913Z,99273.15
2023-02-26T02:26:25.860Z,99274.67
2023-02-26T02:29:27.829Z,99281.27
2023-02-26T02:32:06.817Z,99287.84
2023-02-26T02:35:13.095Z,99290.55
2023-02-26T02:37:50.873Z,99293.79
2023-02-26T02:40:24.246Z,99295.59
2023-02-26T02:43:06.053Z,99298.36
2023-02-26T02:45:45.078Z,99301.57
2023-02-26T02:48:26.893Z,99305.10
2023-02-26T02:51:10.082Z,99311.30
2023-02-26T02:53:45.270Z,99308.77
2023-02-26T02:56:18.954Z,99315.11
2023-02-26T02:58:53.767Z,99323.13
2023-02-26T03:01:25.376Z,99331.39
2023-02-26T03:04:12.265Z,99335.91
2023-02-26T03:06:41.376Z,99345.42
2023-02-26T03:09:10.420Z,99347.34
2023-02-26T03:11:42.252Z,99351.92
2023-02-26T03:14:11.039Z,99361.52
2023-02-26T03:16:57.392Z,99364.98
2023-02-26T03:19:34.387Z,99370.98
2023-02-26T03:22:09.850Z,99374.67
2023-02-26T03:25:17.032Z,99383.30
2023-02-26T03:28:07.567Z,99382.04
2023-02-26T03:30:50.834Z,99386.58
2023-02-26T03:33:38.888Z,99392.55
2023-02-26T03:36:19.190Z,99397.66
2023-02-26T03:39:06.906Z,99404.94
2023-02-26T03:41:45.212Z,99413.06
2023-02-26T03:44:37.354Z,99415.09
2023-02-26T03:47:08.806Z,99419.62
2023-02-26T03:49:43.811Z,99420.11
2023-02-26T03:52:13.506Z,99421.41
2023-02-26T03:55:17.439Z,99421.79
2023-02-26T03:58:11.486Z,99423.52
2023-02-26T04:01:06.207Z,99426.05
2023-02-26T04:03:43.024Z,99434.30
2023-02-26T04:06:11.825Z,99439.51
2023-02-26T04:08:40.899Z,99441.67
2023-02-26T04:11:13.177Z,99446.61
2023-02-26T04:13:40.845Z,99449.35
2023-02-26T04:16:08.707Z,99452.64
2023-02-26T04:18:37.092Z,99456.64
2023-02-26T04:21:06.353Z,99463.66
2023-02-26T04:23:34.112Z,99467.42
2023-02-26T04:26:02.137Z,99468.14
2023-02-26T04:28:30.315Z,99471.91
2023-02-26T04:30:58.254Z,99470.70
2023-02-26T04:33:27.225Z,99475.98
2023-02-26T04:35:55.367Z,99476.23
2023-02-26T04:38:23.337Z,99478.23
2023-02-26T04:40:51.058Z,99479.25
2023-02-26T04:43:20.062Z,99480.02
2023-02-26T04:46:05.980Z,99481.80
2023-02-26T04:48:35.250Z,99484.97
2023-02-26T04:51:02.948Z,99484.13
2023-02-26T04:53:30.704Z,99487.04
2023-02-26T04:55:58.632Z,99488.02
2023-02-26T04:58:26.312Z,99492.46
2023-02-26T05:00:55.297Z,99497.23
2023-02-26T05:03:23.312Z,99502.02
2023-02-26T05:05:51.423Z,99507.20
2023-02-26T05:08:19.082Z,99511.25
2023-02-26T05:10:47.415Z,99510.82
2023-02-26T05:13:15.223Z,99515.31
2023-02-26T05:15:42.936Z,99517.05
2023-02-26T05:18:12.443Z,99522.34
2023-02-26T05:23:30.730Z,99530.90
2023-02-26T05:25:58.709Z,99536.91
2023-02-26T05:28:27.297Z,99537.91
2023-02-26T05:30:57.675Z,99548.45
2023-02-26T05:33:27.001Z,99553.73
2023-02-26T05:35:55.013Z,99559.98
2023-02-26T05:38:22.897Z,99568.14
2023-02-26T05:40:50.592Z,99571.81
2023-02-26T05:43:18.271Z,99578.07
2023-02-26T05:45:45.912Z,99582.90
2023-02-26T05:48:13.503Z,99596.60
2023-02-26T05:50:41.128Z,99600.74
2023-02-26T05:53:08.818Z,99609.20
2023-02-26T05:55:36.839Z,99608.29
2023-02-26T05:58:04.519Z,99615.21
2023-02-26T06:00:32.272Z,99624.30
2023-02-26T06:02:59.960Z,99627.95
2023-02-26T06:05:27.632Z,99634.02
2023-02-26T06:07:55.257Z,99636.75
2023-02-26T06:10:22.938Z,99645.15
2023-02-26T06:12:50.619Z,99647.98
2023-02-26T06:15:18.365Z,99653.56
2023-02-26T06:17:46.006Z,99661.11
2023-02-26T06:20:13.834Z,99662.94
2023-02-26T06:22:41.498Z,99670.52
2023-02-26T06:25:09.493Z,99676.27
2023-02-26T06:27:37.339Z,99683.94
2023-02-26T06:30:06.093Z,99691.84
2023-02-26T06:32:33.970Z,99695.05
2023-02-26T06:35:02.094Z,99701.52
2023-02-26T06:37:29.755Z,99706.75
2023-02-26T06:39:57.396Z,99711.25
2023-02-26T06:42:25.046Z,99714.55
2023-02-26T06:44:52.698Z,99716.89
2023-02-26T06:47:20.326Z,99723.75
2023-02-26T06:49:49.084Z,99726.17
2023-02-26T06:52:16.873Z,99727.45
2023-02-26T06:54:44.938Z,99738.71
2023-02-26T06:57:12.558Z,99753.39
2023-02-26T06:59:40.163Z,99759.81
2023-02-26T07:02:09.477Z,99763.73
2023-02-26T07:04:37.104Z,99765.83
2023-02-26T07:07:04.740Z,99776.52
2023-02-26T07:09:32.386Z,99777.98
2023-02-26T07:12:00.123Z,99784.23
2023-02-26T07:14:27.850Z,99785.96
2023-02-26T07:16:55.494Z,99788.16
2023-02-26T07:19:23.173Z,99791.90
2023-02-26T07:21:51.001Z,99794.08
2023-02-26T07:24:18.680Z,99802.95
2023-02-26T07:26:46.311Z,99799.71
2023-02-26T07:29:14.012Z,99806.11
2023-02-26T07:31:41.863Z,99817.16
2023-02-26T07:34:09.849Z,99819.19
2023-02-26T07:36:37.535Z,99824.61
2023-02-26T07:39:05.209Z,99830.85
2023-02-26T07:41:32.839Z,99837.19
2023-02-26T07:44:00.483Z,99839.68
2023-02-26T07:46:28.467Z,99846.73
2023-02-26T07:48:56.401Z,99848.90
2023-02-26T07:51:24.511Z,99852.43
2023-02-26T07:53:52.509Z,99854.05
2023-02-26T07:56:20.138Z,99854.16
2023-02-26T07:58:47.973Z,99854.41
2023-02-26T08:01:16.298Z,99859.45
2023-02-26T08:03:43.964Z,99860.73
2023-02-26T08:06:11.612Z,99867.73
2023-02-26T08:08:39.324Z,99874.16
2023-02-26T08:11:06.982Z,99879.38
2023-02-26T08:13:34.664Z,99883.19
2023-02-26T08:16:02.454Z,99883.25
2023-02-26T08:18:30.469Z,99885.21
2023-02-26T08:20:58.425Z,99891.11
2023-02-26T08:23:26.897Z,99888.78
2023-02-26T08:26:06.185Z,99893.37
2023-02-26T08:28:34.699Z,99899.17
2023-02-26T08:31:03.390Z,99902.30
2023-02-26T08:33:31.149Z,99906.50
2023-02-26T08:35:59.350Z,99904.24
2023-02-26T08:38:29.015Z,99914.14
2023-02-26T08:40:57.269Z,99918.27
2023-02-26T08:43:25.743Z,99922.02
2023-02-26T08:45:54.704Z,99924.86
2023-02-26T08:48:23.069Z,99930.92
2023-02-26T08:50:51.429Z,99936.77
2023-02-26T08:53:19.156Z,99942.52
2023-02-26T08:55:50.788Z,99952.64
2023-02-26T08:58:19.779Z,99956.44
2023-02-26T09:00:47.913Z,99963.42
2023-02-26T09:03:15.823Z,99965.98
2023-02-26T09:05:43.656Z,99977.39
2023-02-26T09:08:13.507Z,99984.22
2023-02-26T09:10:41.946Z,99987.73
2023-02-26T09:13:09.893Z,99994.40
2023-02-26T09:15:37.597Z,99999.70
2023-02-26T09:18:06.457Z,100002.81
2023-02-26T09:20:34.137Z,100005.72
2023-02-26T09:23:01.776Z,100012.64
2023-02-26T09:25:29.402Z,100012.27
2023-02-26T09:27:58.683Z,100017.14
2023-02-26T09:30:26.722Z,100018.63
2023-02-26T09:45:10.244Z,100041.88
2023-02-26T09:47:47.941Z,100046.04
2023-02-26T09:50:21.896Z,100050.25
2023-02-26T09:52:59.512Z,100053.52
2023-02-26T09:55:34.736Z,100057.47
2023-02-26T09:58:05.166Z,100061.44
2023-02-26T10:00:41.204Z,100061.69
2023-02-26T10:03:34.323Z,100068.08
2023-02-26T10:06:13.883Z,100075.08
2023-02-26T10:09:13.384Z,100078.41
2023-02-26T10:11:56.955Z,100078.00
2023-02-26T10:14:33.732Z,100086.23
2023-02-26T10:17:08.407Z,100090.11
2023-02-26T10:19:42.617Z,100089.02
2023-02-26T10:22:56.518Z,100094.02
2023-02-26T10:25:31.368Z,100094.09
2023-02-26T10:28:39.659Z,100099.12
2023-02-26T10:31:32.409Z,100102.42
2023-02-26T10:34:15.247Z,100103.92
2023-02-26T10:36:52.095Z,100107.09
2023-02-26T10:39:28.758Z,100106.58
2023-02-26T10:41:59.559Z,100111.92
2023-02-26T10:44:47.923Z,100119.52
2023-02-26T10:47:24.465Z,100131.49
2023-02-26T10:50:01.653Z,100137.10
2023-02-26T10:52:33.266Z,100138.84
2023-02-26T10:55:27.707Z,100145.73
2023-02-26T10:58:03.488Z,100145.05
2023-02-26T11:00:31.653Z,100142.17
2023-02-26T11:03:00.592Z,100145.11
2023-02-26T11:05:31.534Z,100149.73
2023-02-26T11:08:04.867Z,100145.08
2023-02-26T11:10:50.634Z,100152.36
2023-02-26T11:13:19.354Z,100154.81
2023-02-26T11:15:51.418Z,100157.10
2023-02-26T11:18:24.959Z,100167.50
2023-02-26T11:20:57.461Z,100170.02
2023-02-26T11:23:29.415Z,100172.50
2023-02-26T11:26:06.461Z,100172.66
2023-02-26T11:28:55.416Z,100170.38
2023-02-26T11:31:26.438Z,100179.06
2023-02-26T11:34:03.325Z,100182.02
2023-02-26T11:36:34.144Z,100184.62
2023-02-26T11:39:22.396Z,100191.37
2023-02-26T11:41:52.986Z,100192.64
2023-02-26T11:44:31.067Z,100199.98
2023-02-26T11:47:02.311Z,100205.32
2023-02-26T11:49:30.117Z,100208.44
2023-02-26T11:52:21.596Z,100209.52
2023-02-26T11:54:55.357Z,100215.52
2023-02-26T11:57:27.666Z,100222.35
2023-02-26T11:59:57.655Z,100228.13
2023-02-26T12:02:30.502Z,100232.44
2023-02-26T12:05:02.849Z,100237.20
2023-02-26T12:07:31.073Z,100236.49
2023-02-26T12:09:58.722Z,100240.55
2023-02-26T12:12:47.641Z,100242.16
2023-02-26T12:15:40.741Z,100245.60
2023-02-26T12:18:26.759Z,100246.02
2023-02-26T12:21:09.864Z,100243.84
2023-02-26T12:23:46.328Z,100251.39
2023-02-26T12:26:29.126Z,100251.30
2023-02-26T12:29:15.671Z,100249.33
2023-02-26T12:32:07.565Z,100256.02
2023-02-26T12:35:01.745Z,100258.82
2023-02-26T12:37:52.388Z,100261.24
2023-02-26T12:40:59.804Z,100265.18
2023-02-26T12:43:48.394Z,100265.11
2023-02-26T12:46:31.711Z,100267.20
2023-02-26T12:49:16.222Z,100272.27
2023-02-26T12:51:56.078Z,100264.45
2023-02-26T12:54:42.088Z,100267.65
2023-02-26T12:57:29.004Z,100278.15
2023-02-26T13:00:34.243Z,100281.56
2023-02-26T13:03:22.279Z,100283.18
2023-02-26T13:06:49.191Z,100283.48
2023-02-26T13:09:42.102Z,100289.16
2023-02-26T13:12:31.882Z,100295.23
2023-02-26T13:15:02.041Z,100294.48
2023-02-26T13:17:47.103Z,100298.66
2023-02-26T13:23:14.069Z,100304.73
2023-02-26T13:25:51.881Z,100304.06
2023-02-26T13:28:24.194Z,100303.61
2023-02-26T13:30:57.060Z,100307.13
2023-02-26T13:33:34.448Z,100307.36
2023-02-26T13:36:04.903Z,100314.27
2023-02-26T13:38:46.702Z,100316.11
2023-02-26T13:41:40.941Z,100316.93
2023-02-26T13:44:33.151Z,100320.83
2023-02-26T13:47:19.761Z,100321.82
2023-02-26T13:49:51.094Z,100331.07
2023-02-26T13:52:26.893Z,100333.92
2023-02-26T13:54:57.437Z,100334.42
2023-02-26T13:57:33.306Z,100336.64
2023-02-26T14:00:12.554Z,100340.67
2023-02-26T14:02:45.581Z,100340.98
2023-02-26T14:05:37.957Z,100345.39
2023-02-26T14:08:20.978Z,100347.52
2023-02-26T14:11:04.476Z,100346.70
2023-02-26T14:13:41.788Z,100351.11
2023-02-26T14:16:12.901Z,100352.77
2023-02-26T14:18:40.773Z,100351.27
2023-02-26T14:21:26.990Z,100350.60
2023-02-26T14:24:05.516Z,100355.11
2023-02-26T14:26:46.458Z,100355.23
2023-02-26T14:29:21.134Z,100354.73
2023-02-26T14:31:55.790Z,100360.95
2023-02-26T14:34:27.094Z,100360.59
2023-02-26T14:36:58.577Z,100362.40
2023-02-26T14:39:36.232Z,100365.96
2023-02-26T14:42:14.622Z,100369.55
2023-02-26T14:44:46.689Z,100370.60
2023-02-26T14:47:15.730Z,100378.17
2023-02-26T14:49:46.680Z,100384.25
2023-02-26T14:52:40.327Z,100389.46
2023-02-26T14:55:16.876Z,100391.41
2023-02-26T14:58:01.018Z,100391.56
2023-02-26T15:00:52.398Z,100394.48
2023-02-26T15:03:57.383Z,100396.67
2023-02-26T15:06:43.682Z,100408.29
2023-02-26T15:09:23.921Z,100410.23
2023-02-26T15:12:05.582Z,100412.38
2023-02-26T15:14:52.400Z,100422.33
2023-02-26T15:17:49.298Z,100421.48
2023-02-26T15:20:48.094Z,100424.80
2023-02-26T15:23:56.486Z,100425.78
2023-02-26T15:26:30.864Z,100435.05
2023-02-26T15:29:04.828Z,100430.86
2023-02-26T15:31:45.725Z,100433.36
2023-02-26T15:34:16.694Z,100441.80
2023-02-26T15:36:53.214Z,100443.80
2023-02-26T15:39:28.572Z,100442.31
2023-02-26T15:41:57.520Z,100443.73
2023-02-26T15:44:30.403Z,100447.40
2023-02-26T15:47:01.551Z,100448.45
2023-02-26T15:49:35.952Z,100452.13
2023-02-26T15:52:07.185Z,100454.40
2023-02-26T15:54:41.878Z,100455.63
2023-02-26T15:57:12.190Z,100462.89
2023-02-26T15:59:44.753Z,100463.75
2023-02-26T16:02:13.761Z,100468.30
2023-02-26T16:04:42.974Z,100468.07
2023-02-26T16:07:12.444Z,100472.09
2023-02-26T16:09:44.701Z,100475.91
2023-02-26T16:12:22.192Z,100478.98
2023-02-26T16:14:58.996Z,100477.90
2023-02-26T16:17:30.732Z,100478.92
2023-02-26T16:22:32.272Z,100483.23
2023-02-26T16:25:09.295Z,100488.27
2023-02-26T16:27:37.612Z,100498.09
2023-02-26T16:30:06.721Z,100500.77
2023-02-26T16:32:35.981Z,100507.58
2023-02-26T16:35:19.984Z,100511.75
2023-02-26T16:37:50.239Z,100516.63
2023-02-26T16:40:19.010Z,100517.76
2023-02-26T16:43:05.053Z,100525.73
2023-02-26T16:45:36.095Z,100529.55
2023-02-26T16:48:11.336Z,100534.78
2023-02-26T16:50:40.621Z,100542.16
2023-02-26T16:53:14.316Z,100546.45
2023-02-26T16:55:47.354Z,100549.19
2023-02-26T16:58:16.054Z,100556.73
2023-02-26T17:00:46.470Z,100559.48
2023-02-26T17:03:17.806Z,100562.34
2023-02-26T17:06:09.369Z,100563.53
2023-02-26T17:09:10.284Z,100562.98
2023-02-26T17:11:39.512Z,100563.31
2023-02-26T17:14:13.984Z,100567.54
2023-02-26T17:16:41.722Z,100572.52
2023-02-26T17:19:09.566Z,100573.23
2023-02-26T17:21:58.989Z,100578.05
2023-02-26T17:24:32.014Z,100586.38
2023-02-26T17:27:01.473Z,100588.89
2023-02-26T17:29:39.903Z,100592.50
2023-02-26T17:32:20.077Z,100599.95
2023-02-26T17:34:48.307Z,100602.14
2023-02-26T17:37:18.027Z,100608.25
2023-02-26T17:39:46.572Z,100610.85
2023-02-26T17:42:21.308Z,100617.67
2023-02-26T17:44:50.389Z,100617.80
2023-02-26T17:47:22.645Z,100619.77
2023-02-26T17:49:50.382Z,100621.16
2023-02-26T17:52:18.189Z,100628.69
2023-02-26T17:54:46.035Z,100629.95
2023-02-26T17:57:21.690Z,100632.05
2023-02-26T17:59:49.620Z,100636.73
2023-02-26T18:02:22.238Z,100633.44
2023-02-26T18:04:50.112Z,100636.23
2023-02-26T18:07:19.178Z,100642.55
2023-02-26T18:09:48.283Z,100644.84
2023-02-26T18:12:19.372Z,100645.41
2023-02-26T18:14:47.808Z,100646.48
2023-02-26T18:17:23.864Z,100649.31
2023-02-26T18:19:52.133Z,100646.71
2023-02-26T18:22:25.306Z,100647.98
2023-02-26T18:24:56.257Z,100648.92
2023-02-26T18:27:25.575Z,100648.30
2023-02-26T18:29:53.988Z,100652.45
2023-02-26T18:32:24.093Z,100655.96
2023-02-26T18:34:52.778Z,100662.70
2023-02-26T18:37:23.731Z,100664.77
2023-02-26T18:39:52.288Z,100672.14
2023-02-26T18:42:21.364Z,100675.16
2023-02-26T18:44:50.199Z,100679.83
2023-02-26T18:47:18.965Z,100684.05
2023-02-26T18:49:48.553Z,100685.41
2023-02-26T18:52:17.170Z,100686.59
2023-02-26T18:54:47.078Z,100689.73
2023-02-26T18:57:15.246Z,100694.10
2023-02-26T18:59:43.128Z,100696.50
2023-02-26T19:02:13.955Z,100699.10
2023-02-26T19:04:42.377Z,100703.70
2023-02-26T19:07:10.167Z,100704.42
2023-02-26T19:09:38.118Z,100706.50
2023-02-26T19:12:06.513Z,100709.61
2023-02-26T19:14:34.519Z,100716.48
2023-02-26T19:17:02.458Z,100718.52
2023-02-26T19:23:01.102Z,100722.57
2023-02-26T19:25:30.867Z,100725.27
2023-02-26T19:27:58.568Z,100728.27
2023-02-26T19:30:27.457Z,100729.80
2023-02-26T19:32:55.296Z,100731.05
2023-02-26T19:35:26.915Z,100732.73
2023-02-26T19:37:54.601Z,100739.52
2023-02-26T19:40:22.482Z,100738.41
2023-02-26T19:42:51.010Z,100739.89
2023-02-26T19:45:18.882Z,100739.88
2023-02-26T19:47:47.055Z,100744.85
2023-02-26T19:50:14.796Z,100748.06
2023-02-26T19:52:42.589Z,100750.13
2023-02-26T19:55:10.941Z,100761.50
2023-02-26T19:57:38.617Z,100764.00
2023-02-26T20:00:07.278Z,100771.34
2023-02-26T20:02:41.955Z,100774.30
2023-02-26T20:05:16.048Z,100780.67
2023-02-26T20:07:44.992Z,100782.16
2023-02-26T20:10:13.028Z,100789.67
2023-02-26T20:12:40.853Z,100789.66
2023-02-26T20:15:09.029Z,100789.38
2023-02-26T20:17:37.004Z,100793.29
2023-02-26T20:22:43.450Z,100793.77
2023-02-26T20:25:11.455Z,100793.16
2023-02-26T20:27:39.228Z,100796.64
2023-02-26T20:30:08.246Z,100796.82
2023-02-26T20:32:37.108Z,100800.98
2023-02-26T20:35:05.683Z,100803.74
2023-02-26T20:37:33.567Z,100809.63
2023-02-26T20:40:01.300Z,100813.94
2023-02-26T20:42:29.150Z,100814.05
2023-02-26T20:44:56.979Z,100818.41
2023-02-26T20:47:24.845Z,100819.56
2023-02-26T20:49:52.769Z,100815.38
2023-02-26T20:52:21.642Z,100819.79
2023-02-26T20:54:49.361Z,100821.12
2023-02-26T20:57:17.213Z,100822.23
2023-02-26T20:59:45.004Z,100824.14
2023-02-26T21:02:13.947Z,100828.38
2023-02-26T21:04:42.072Z,100831.90
2023-02-26T21:07:13.408Z,100832.94
2023-02-26T21:09:41.793Z,100837.16
2023-02-26T21:12:09.577Z,100838.04
2023-02-26T21:14:37.190Z,100837.27
2023-02-26T21:17:05.122Z,100835.73
2023-02-26T21:19:33.003Z,100840.08
2023-02-26T21:22:03.312Z,100840.09
2023-02-26T21:24:31.075Z,100844.96
2023-02-26T21:26:58.852Z,100851.30
2023-02-26T21:29:26.593Z,100849.40
2023-02-26T21:31:56.973Z,100849.55
2023-02-26T21:34:33.613Z,100851.92
2023-02-26T21:37:07.904Z,100852.55
2023-02-26T21:39:37.948Z,100857.59
2023-02-26T21:42:07.867Z,100856.15
2023-02-26T21:44:36.209Z,100859.80
2023-02-26T21:47:04.217Z,100864.71
2023-02-26T21:49:32.491Z,100867.74
2023-02-26T21:52:04.509Z,100871.14
2023-02-26T21:54:32.624Z,100873.34
2023-02-26T21:57:00.381Z,100874.48
2023-02-26T21:59:28.208Z,100876.30
2023-02-26T22:01:56.469Z,100876.79
2023-02-26T22:04:24.417Z,100878.62
2023-02-26T22:06:52.339Z,100885.17
2023-02-26T22:09:20.120Z,100886.46
2023-02-26T22:11:48.005Z,100887.54
2023-02-26T22:14:15.954Z,100890.79
2023-02-26T22:16:43.727Z,100893.55
2023-02-26T22:19:11.486Z,100898.15
2023-02-26T22:21:39.209Z,100900.39
2023-02-26T22:24:07.361Z,100902.02
2023-02-26T22:26:35.076Z,100904.44
2023-02-26T22:29:03.798Z,100901.60
2023-02-26T22:31:32.504Z,100907.46
2023-02-26T22:34:00.824Z,100909.20
2023-02-26T22:36:31.218Z,100911.02
2023-02-26T22:38:58.944Z,100914.69
2023-02-26T22:41:26.703Z,100916.63
2023-02-26T22:43:54.971Z,100916.83
2023-02-26T22:46:24.503Z,100916.98
2023-02-26T22:48:52.171Z,100917.98
2023-02-26T22:51:19.871Z,100913.30
2023-02-26T22:53:47.512Z,100915.58
2023-02-26T22:56:15.201Z,100916.29
2023-02-26T22:58:43.166Z,100914.34
2023-02-26T23:01:10.895Z,100918.41
2023-02-26T23:03:38.610Z,100922.76
2023-02-26T23:06:06.690Z,100920.51
2023-02-26T23:08:34.974Z,100925.20
2023-02-26T23:11:03.755Z,100927.15
2023-02-26T23:13:34.255Z,100936.61
2023-02-26T23:16:04.990Z,100942.36
2023-02-26T23:18:34.157Z,100944.11
2023-02-26T23:21:02.341Z,100946.64
2023-02-26T23:23:29.998Z,100942.41
2023-02-26T23:25:57.784Z,100943.71
2023-02-26T23:28:25.547Z,100943.97
2023-02-26T23:30:53.328Z,100952.16
2023-02-26T23:33:21.072Z,100951.98
2023-02-26T23:35:49.131Z,100949.95
2023-02-26T23:38:16.859Z,100954.95
2023-02-26T23:40:44.573Z,100961.16
2023-02-26T23:43:12.206Z,100968.93
2023-02-26T23:45:40.056Z,100969.27
2023-02-26T23:48:07.768Z,100970.98
2023-02-26T23:50:35.661Z,100970.81
2023-02-26T23:53:03.282Z,100974.40
2023-02-26T23:55:31.125Z,100977.23
2023-02-26T23:57:58.878Z,100972.95
